createdAt,value
2018-06-09T00:00:56.127Z,0.30
2018-06-09T00:03:24.362Z,0.40
2018-06-09T00:05:52.198Z,0.57
2018-06-09T00:08:19.876Z,0.30
2018-06-09T00:10:48.024Z,0.57
2018-06-09T00:13:15.716Z,0.47
2018-06-09T00:15:43.380Z,0.37
2018-06-09T00:18:11.463Z,0.30
2018-06-09T00:20:39.137Z,0.50
2018-06-09T00:23:06.753Z,0.40
2018-06-09T00:25:35.028Z,0.40
2018-06-09T00:28:02.705Z,0.40
2018-06-09T00:30:30.350Z,0.20
2018-06-09T00:32:58.497Z,0.30
2018-06-09T00:35:26.156Z,0.50
2018-06-09T00:37:53.812Z,0.40
2018-06-09T00:40:22.238Z,0.50
2018-06-09T00:42:50.220Z,0.30
2018-06-09T00:45:18.388Z,0.37
2018-06-09T00:47:47.461Z,0.53
2018-06-09T00:50:15.527Z,0.40
2018-06-09T00:52:43.384Z,0.50
2018-06-09T00:55:12.189Z,0.30
2018-06-09T00:57:39.918Z,0.40
2018-06-09T01:00:07.607Z,0.40
2018-06-09T01:02:35.741Z,0.50
2018-06-09T01:05:03.861Z,0.50
2018-06-09T01:07:31.523Z,0.30
2018-06-09T01:09:59.546Z,0.33
2018-06-09T01:12:27.225Z,0.27
2018-06-09T01:14:54.905Z,0.47
2018-06-09T01:17:22.837Z,0.30
2018-06-09T01:19:50.597Z,0.40
2018-06-09T01:22:18.274Z,0.43
2018-06-09T01:24:46.356Z,0.30
2018-06-09T01:27:14.258Z,0.30
2018-06-09T01:29:41.865Z,0.23
2018-06-09T01:32:10.109Z,0.40
2018-06-09T01:34:37.789Z,0.40
2018-06-09T01:37:05.397Z,0.40
2018-06-09T01:39:33.370Z,0.40
2018-06-09T01:42:01.069Z,0.40
2018-06-09T01:44:28.743Z,0.50
2018-06-09T01:46:57.043Z,0.30
2018-06-09T01:49:24.646Z,0.53
2018-06-09T01:51:52.418Z,0.50
2018-06-09T01:54:20.414Z,0.43
2018-06-09T01:56:48.102Z,0.90
2018-06-09T01:59:16.227Z,0.70
2018-06-09T02:01:44.376Z,0.83
2018-06-09T02:04:11.976Z,0.70
2018-06-09T02:06:39.586Z,0.43
2018-06-09T02:09:08.633Z,0.60
2018-06-09T02:11:36.300Z,0.50
2018-06-09T02:14:03.968Z,0.43
2018-06-09T02:16:32.181Z,0.60
2018-06-09T02:18:59.799Z,0.40
2018-06-09T02:21:27.500Z,0.60
2018-06-09T02:23:55.590Z,0.70
2018-06-09T02:26:23.249Z,0.70
2018-06-09T02:28:50.853Z,0.57
2018-06-09T02:31:19.119Z,0.60
2018-06-09T02:33:46.748Z,0.60
2018-06-09T02:36:14.334Z,0.60
2018-06-09T02:38:42.442Z,0.63
2018-06-09T02:41:10.106Z,0.53
2018-06-09T02:43:37.807Z,0.70
2018-06-09T02:46:06.059Z,0.50
2018-06-09T02:48:33.670Z,0.70
2018-06-09T02:51:01.335Z,0.50
2018-06-09T02:53:29.313Z,0.70
2018-06-09T02:55:57.009Z,0.60
2018-06-09T02:58:24.692Z,0.70
2018-06-09T03:00:52.643Z,0.60
2018-06-09T03:03:20.341Z,0.50
2018-06-09T03:05:48.001Z,0.50
2018-06-09T03:08:16.130Z,0.50
2018-06-09T03:10:43.738Z,0.47
2018-06-09T03:13:11.323Z,0.57
2018-06-09T03:15:39.705Z,0.40
2018-06-09T03:18:07.361Z,0.90
2018-06-09T03:20:35.055Z,0.50
2018-06-09T03:23:03.205Z,0.40
2018-06-09T03:25:30.971Z,0.50
2018-06-09T03:27:58.595Z,0.57
2018-06-09T03:30:26.584Z,0.43
2018-06-09T03:32:54.211Z,0.60
2018-06-09T03:35:21.847Z,0.47
2018-06-09T03:37:49.844Z,0.57
2018-06-09T03:40:17.443Z,0.70
2018-06-09T03:42:45.060Z,0.53
2018-06-09T03:45:13.348Z,0.50
2018-06-09T03:47:41.018Z,0.30
2018-06-09T03:50:08.700Z,0.50
2018-06-09T03:52:36.671Z,0.50
2018-06-09T03:55:04.280Z,0.50
2018-06-09T03:57:31.936Z,0.40
2018-06-09T04:00:00.244Z,0.70
2018-06-09T04:02:27.878Z,0.50
2018-06-09T04:04:55.558Z,0.50
2018-06-09T04:07:23.689Z,0.40
2018-06-09T04:09:51.340Z,0.50
2018-06-09T04:12:19.061Z,0.60
2018-06-09T04:14:48.108Z,0.70
2018-06-09T04:17:15.757Z,0.40
2018-06-09T04:19:43.422Z,0.33
2018-06-09T04:22:11.689Z,0.60
2018-06-09T04:24:39.306Z,0.30
2018-06-09T04:27:06.882Z,0.40
2018-06-09T04:29:35.123Z,0.40
2018-06-09T04:32:02.778Z,0.60
2018-06-09T04:34:30.445Z,0.40
2018-06-09T04:36:58.681Z,0.60
2018-06-09T04:39:26.396Z,0.50
2018-06-09T04:41:54.007Z,0.40
2018-06-09T04:44:21.964Z,0.57
2018-06-09T04:46:49.671Z,0.60
2018-06-09T04:49:17.388Z,0.40
2018-06-09T04:51:45.674Z,0.53
2018-06-09T04:54:13.236Z,0.50
2018-06-09T04:56:40.865Z,0.40
2018-06-09T04:59:09.061Z,0.37
2018-06-09T05:01:36.812Z,0.23
2018-06-09T05:04:04.447Z,0.30
2018-06-09T05:06:32.498Z,0.33
2018-06-09T05:09:00.142Z,0.50
2018-06-09T05:14:26.335Z,0.40
2018-06-09T05:16:53.950Z,0.40
2018-06-09T05:19:21.778Z,0.43
2018-06-09T05:21:49.652Z,0.33
2018-06-09T05:24:17.262Z,0.50
2018-06-09T05:26:45.066Z,0.30
2018-06-09T05:29:13.321Z,0.33
2018-06-09T05:31:40.977Z,0.30
2018-06-09T05:34:08.828Z,0.40
2018-06-09T05:36:36.712Z,0.30
2018-06-09T05:39:06.300Z,0.37
2018-06-09T05:41:33.975Z,0.33
2018-06-09T05:44:02.621Z,0.47
2018-06-09T05:46:30.290Z,0.40
2018-06-09T05:48:58.091Z,0.63
2018-06-09T05:51:26.203Z,0.40
2018-06-09T05:53:53.812Z,0.23
2018-06-09T05:56:21.614Z,0.30
2018-06-09T05:58:49.764Z,0.30
2018-06-09T06:01:17.392Z,0.20
2018-06-09T06:03:45.158Z,0.20
2018-06-09T06:06:13.141Z,0.20
2018-06-09T06:08:40.730Z,0.27
2018-06-09T06:11:08.466Z,0.30
2018-06-09T06:13:36.418Z,0.20
2018-06-09T06:16:04.398Z,0.20
2018-06-09T06:40:37.114Z,0.10
2018-06-09T06:43:05.048Z,0.15
2018-06-09T06:45:32.805Z,0.10
2018-06-09T06:48:00.593Z,0.10
2018-06-09T06:50:28.770Z,0.20
2018-06-09T06:52:56.474Z,0.13
2018-06-09T07:39:34.205Z,0.10
2018-06-09T07:42:02.000Z,0.10
2018-06-09T07:44:29.661Z,0.10
2018-06-09T07:46:57.469Z,0.10
2018-06-09T07:49:25.412Z,0.10
2018-06-09T07:51:53.066Z,0.20
2018-06-09T07:54:20.953Z,0.10
2018-06-09T07:56:49.004Z,0.10
2018-06-09T08:26:16.907Z,0.00
2018-06-09T08:38:33.390Z,0.10
2018-06-09T08:41:01.340Z,0.10
2018-06-09T08:43:29.038Z,0.10
2018-06-09T08:45:56.856Z,0.10
2018-06-09T08:48:24.792Z,0.20
2018-06-09T08:50:52.439Z,0.00
2018-06-09T08:53:20.218Z,0.10
2018-06-09T08:55:47.998Z,0.10
2018-06-09T08:58:15.687Z,0.10
2018-06-09T09:00:43.504Z,0.10
2018-06-09T09:03:11.677Z,0.17
2018-06-09T09:05:39.222Z,0.20
2018-06-09T09:08:07.090Z,0.27
2018-06-09T09:10:35.033Z,0.20
2018-06-09T09:13:02.646Z,0.10
2018-06-09T09:15:30.450Z,0.00
2018-06-09T09:30:14.942Z,0.17
2018-06-09T09:32:43.009Z,0.13
2018-06-09T09:35:10.654Z,0.17
2018-06-09T09:37:38.518Z,0.00
2018-06-09T09:40:06.490Z,0.07
2018-06-09T09:42:34.133Z,0.10
2018-06-09T09:45:01.861Z,0.10
2018-06-09T09:47:29.964Z,0.00
2018-06-09T09:49:57.550Z,0.10
2018-06-09T09:52:25.338Z,0.10
2018-06-09T09:54:53.222Z,0.10
2018-06-09T09:57:20.828Z,0.10
2018-06-09T09:59:48.641Z,0.00
2018-06-09T10:02:16.388Z,0.10
2018-06-09T10:04:44.085Z,0.10
2018-06-09T10:07:11.744Z,0.07
2018-06-09T10:09:39.625Z,0.10
2018-06-09T10:12:07.307Z,0.00
2018-06-09T10:14:35.153Z,0.10
2018-06-09T10:17:03.013Z,0.10
2018-06-09T10:19:30.763Z,0.00
2018-06-09T10:21:58.624Z,0.10
2018-06-09T10:24:26.773Z,0.13
2018-06-09T10:26:54.460Z,0.10
2018-06-09T10:29:22.227Z,0.10
2018-06-09T10:31:50.136Z,0.10
2018-06-09T10:34:17.857Z,0.10
2018-06-09T10:36:45.602Z,0.00
2018-06-09T10:39:13.495Z,0.10
2018-06-09T10:41:41.136Z,0.10
2018-06-09T10:44:09.005Z,0.20
2018-06-09T10:46:36.900Z,0.00
2018-06-09T10:49:04.571Z,0.03
2018-06-09T10:51:32.354Z,0.10
2018-06-09T10:54:00.223Z,0.00
2018-06-09T10:56:27.865Z,0.10
2018-06-09T10:58:55.817Z,0.00
2018-06-09T11:01:23.771Z,0.20
2018-06-09T11:03:51.456Z,0.03
2018-06-09T11:06:19.271Z,0.10
2018-06-09T11:08:47.174Z,0.20
2018-06-09T11:11:14.890Z,0.10
2018-06-09T11:13:42.681Z,0.10
2018-06-09T11:16:10.675Z,0.10
2018-06-09T11:18:38.299Z,0.10
2018-06-09T11:21:06.148Z,0.10
2018-06-09T11:23:34.123Z,0.10
2018-06-09T11:26:01.760Z,0.10
2018-06-09T11:28:29.552Z,0.00
2018-06-09T11:30:57.597Z,0.10
2018-06-09T11:33:25.219Z,0.20
2018-06-09T11:35:52.926Z,0.33
2018-06-09T11:38:20.986Z,0.27
2018-06-09T11:40:48.658Z,0.30
2018-06-09T11:43:16.421Z,0.17
2018-06-09T11:45:44.362Z,0.30
2018-06-09T11:48:11.999Z,0.20
2018-06-09T11:50:39.860Z,0.40
2018-06-09T11:53:07.792Z,0.33
2018-06-09T11:55:35.719Z,0.30
2018-06-09T11:58:04.150Z,0.40
2018-06-09T12:00:31.889Z,0.40
2018-06-09T12:02:59.692Z,0.40
2018-06-09T12:05:27.417Z,0.30
2018-06-09T12:07:55.229Z,0.37
2018-06-09T12:10:23.011Z,0.27
2018-06-09T12:12:50.736Z,0.33
2018-06-09T12:15:18.576Z,0.30
2018-06-09T12:17:46.397Z,0.57
2018-06-09T12:20:14.210Z,0.30
2018-06-09T12:22:41.914Z,0.30
2018-06-09T12:25:09.673Z,0.30
2018-06-09T12:27:37.390Z,0.30
2018-06-09T12:30:05.218Z,0.30
2018-06-09T12:32:33.072Z,0.40
2018-06-09T12:35:00.864Z,0.17
2018-06-09T12:37:28.793Z,0.50
2018-06-09T12:39:56.529Z,0.20
2018-06-09T12:42:24.208Z,0.20
2018-06-09T12:44:51.959Z,0.30
2018-06-09T12:47:20.063Z,0.20
2018-06-09T12:49:47.820Z,0.30
2018-06-09T12:52:16.586Z,0.20
2018-06-09T12:54:44.467Z,0.30
2018-06-09T12:57:12.431Z,0.30
2018-06-09T12:59:40.234Z,0.13
2018-06-09T13:02:07.955Z,0.10
2018-06-09T13:04:35.750Z,0.10
2018-06-09T13:07:03.534Z,0.20
2018-06-09T13:09:31.248Z,0.10
2018-06-09T13:11:59.102Z,0.20
2018-06-09T13:14:27.028Z,0.20
2018-06-09T13:16:54.686Z,0.13
2018-06-09T13:19:22.507Z,0.30
2018-06-09T13:21:50.306Z,0.20
2018-06-09T13:24:18.109Z,0.13
2018-06-09T13:26:46.905Z,0.10
2018-06-09T13:29:14.645Z,0.23
2018-06-09T13:31:42.486Z,0.20
2018-06-09T13:34:10.236Z,0.27
2018-06-09T13:36:38.655Z,0.20
2018-06-09T13:39:07.265Z,0.50
2018-06-09T13:41:35.363Z,0.30
2018-06-09T13:44:03.199Z,0.20
2018-06-09T13:46:31.182Z,0.17
2018-06-09T13:48:58.867Z,0.27
2018-06-09T13:51:26.785Z,0.33
2018-06-09T13:53:54.561Z,0.20
2018-06-09T13:56:22.447Z,0.10
2018-06-09T13:58:50.253Z,0.10
2018-06-09T14:01:18.163Z,0.93
2018-06-09T14:03:45.975Z,0.20
2018-06-09T14:06:13.679Z,0.10
2018-06-09T14:08:41.481Z,0.17
2018-06-09T14:11:09.351Z,0.10
2018-06-09T14:13:37.083Z,0.10
2018-06-09T14:16:04.849Z,0.00
2018-06-09T14:18:32.621Z,0.10
2018-06-09T14:21:00.480Z,0.10
2018-06-09T14:23:28.314Z,0.10
2018-06-09T14:25:56.056Z,0.13
2018-06-09T14:28:23.819Z,0.10
2018-06-09T14:30:52.867Z,0.10
2018-06-09T14:33:21.616Z,0.10
2018-06-09T14:35:49.312Z,0.10
2018-06-09T14:38:17.118Z,0.10
2018-06-09T14:40:44.964Z,0.03
2018-06-09T14:43:12.833Z,0.10
2018-06-09T14:45:40.554Z,0.20
2018-06-09T14:48:08.385Z,0.10
2018-06-09T14:50:36.123Z,0.20
2018-06-09T14:53:04.616Z,0.20
2018-06-09T14:55:32.284Z,0.10
2018-06-09T14:58:00.195Z,0.20
2018-06-09T15:00:28.047Z,0.23
2018-06-09T15:02:55.779Z,0.10
2018-06-09T15:05:23.521Z,0.03
2018-06-09T15:07:51.206Z,0.10
2018-06-09T15:10:19.102Z,0.20
2018-06-09T15:12:46.790Z,0.10
2018-06-09T15:15:14.575Z,0.20
2018-06-09T15:17:42.454Z,0.20
2018-06-09T15:20:10.236Z,0.10
2018-06-09T15:22:38.047Z,0.30
2018-06-09T15:25:05.855Z,0.10
2018-06-09T15:27:33.674Z,0.20
2018-06-09T15:30:01.359Z,0.13
2018-06-09T15:32:29.123Z,0.13
2018-06-09T15:34:56.955Z,0.10
2018-06-09T15:37:24.707Z,0.00
2018-06-09T15:39:52.428Z,0.20
2018-06-09T15:42:20.312Z,0.20
2018-06-09T15:44:48.072Z,0.20
2018-06-09T15:47:16.026Z,0.10
2018-06-09T15:49:43.739Z,0.20
2018-06-09T15:52:11.495Z,0.10
2018-06-09T15:54:39.393Z,0.20
2018-06-09T15:57:07.311Z,0.10
2018-06-09T15:59:34.973Z,0.20
2018-06-09T16:02:02.732Z,0.27
2018-06-09T16:04:31.116Z,0.17
2018-06-09T16:06:58.732Z,0.10
2018-06-09T16:09:26.500Z,0.20
2018-06-09T16:11:54.464Z,0.20
2018-06-09T16:14:22.010Z,0.20
2018-06-09T16:16:49.697Z,0.40
2018-06-09T16:19:17.470Z,0.40
2018-06-09T16:21:45.096Z,0.90
2018-06-09T16:24:12.942Z,0.10
2018-06-09T16:26:40.984Z,0.30
2018-06-09T16:29:08.641Z,0.20
2018-06-09T16:31:36.341Z,0.20
2018-06-09T16:34:04.222Z,0.20
2018-06-09T16:36:31.842Z,0.23
2018-06-09T16:38:59.826Z,0.10
2018-06-09T16:41:27.775Z,0.40
2018-06-09T16:43:55.400Z,0.50
2018-06-09T16:46:23.409Z,0.50
2018-06-09T16:48:51.268Z,0.23
2018-06-09T16:51:18.865Z,0.20
2018-06-09T16:53:46.655Z,0.10
2018-06-09T16:56:14.549Z,0.20
2018-06-09T16:58:42.150Z,0.10
2018-06-09T17:01:09.959Z,0.20
2018-06-09T17:03:37.903Z,0.20
2018-06-09T17:06:05.517Z,0.20
2018-06-09T17:08:33.388Z,0.30
2018-06-09T17:11:01.508Z,0.10
2018-06-09T17:13:29.222Z,0.20
2018-06-09T17:15:57.188Z,0.20
2018-06-09T17:18:24.942Z,0.30
2018-06-09T17:20:52.564Z,0.13
2018-06-09T17:23:20.267Z,0.20
2018-06-09T17:25:48.057Z,0.10
2018-06-09T17:28:15.659Z,0.10
2018-06-09T17:30:43.479Z,0.10
2018-06-09T17:33:11.440Z,0.10
2018-06-09T17:35:39.101Z,0.20
2018-06-09T17:38:06.931Z,0.13
2018-06-09T17:40:34.800Z,0.10
2018-06-09T17:43:02.479Z,0.10
2018-06-09T17:45:30.263Z,0.30
2018-06-09T17:47:58.797Z,0.20
2018-06-09T17:50:26.466Z,0.27
2018-06-09T17:52:54.272Z,0.30
2018-06-09T17:55:22.236Z,0.20
2018-06-09T17:57:50.116Z,0.30
2018-06-09T18:00:17.951Z,0.40
2018-06-09T18:02:45.592Z,0.40
2018-06-09T18:05:13.255Z,0.33
2018-06-09T18:07:41.010Z,0.20
2018-06-09T18:10:08.844Z,0.23
2018-06-09T18:12:36.919Z,0.17
2018-06-09T18:15:04.849Z,0.10
2018-06-09T18:17:32.699Z,0.23
2018-06-09T18:20:00.584Z,0.23
2018-06-09T18:22:28.470Z,0.20
2018-06-09T18:24:56.306Z,0.30
2018-06-09T18:27:24.163Z,0.20
2018-06-09T18:29:52.236Z,0.30
2018-06-09T18:32:20.102Z,0.30
2018-06-09T18:34:47.969Z,0.17
2018-06-09T18:37:15.804Z,0.43
2018-06-09T18:39:43.602Z,0.50
2018-06-09T18:42:11.409Z,0.10
2018-06-09T18:44:39.263Z,0.20
2018-06-09T18:47:07.146Z,0.20
2018-06-09T18:49:34.830Z,0.20
2018-06-09T18:52:02.645Z,0.20
2018-06-09T18:54:30.450Z,0.10
2018-06-09T18:56:58.211Z,0.20
2018-06-09T18:59:26.122Z,0.23
2018-06-09T19:01:53.874Z,0.20
2018-06-09T19:04:21.679Z,0.13
2018-06-09T19:06:49.564Z,0.10
2018-06-09T19:09:17.223Z,0.20
2018-06-09T19:11:44.998Z,0.20
2018-06-09T19:14:12.818Z,0.23
2018-06-09T19:16:40.738Z,0.30
2018-06-09T19:19:08.519Z,0.20
2018-06-09T19:21:36.315Z,0.20
2018-06-09T19:24:05.030Z,0.30
2018-06-09T19:26:32.827Z,0.23
2018-06-09T19:29:00.607Z,0.37
2018-06-09T19:31:28.464Z,0.30
2018-06-09T19:33:56.369Z,0.10
2018-06-09T19:36:24.057Z,0.17
2018-06-09T19:38:51.786Z,0.20
2018-06-09T19:41:19.585Z,0.10
2018-06-09T19:43:47.253Z,0.30
2018-06-09T19:46:15.122Z,0.20
2018-06-09T19:48:42.868Z,0.17
2018-06-09T19:51:10.825Z,0.20
2018-06-09T19:53:38.683Z,0.30
2018-06-09T19:56:06.494Z,0.17
2018-06-09T19:58:34.596Z,0.10
2018-06-09T20:01:02.516Z,0.20
2018-06-09T20:03:30.165Z,0.30
2018-06-09T20:05:58.033Z,0.30
2018-06-09T20:08:25.828Z,0.30
2018-06-09T20:10:53.527Z,0.20
2018-06-09T20:13:22.513Z,0.27
2018-06-09T20:15:50.428Z,0.37
2018-06-09T20:18:18.087Z,0.40
2018-06-09T20:20:46.060Z,0.20
2018-06-09T20:23:13.748Z,0.30
2018-06-09T20:25:41.404Z,0.27
2018-06-09T20:28:09.425Z,0.30
2018-06-09T20:30:37.430Z,0.20
2018-06-09T20:33:05.030Z,0.20
2018-06-09T20:35:33.144Z,0.20
2018-06-09T20:38:01.100Z,0.23
2018-06-09T20:40:28.813Z,0.17
2018-06-09T20:42:56.761Z,0.40
2018-06-09T20:45:24.561Z,0.30
2018-06-09T20:47:52.225Z,0.30
2018-06-09T20:50:20.193Z,0.20
2018-06-09T20:52:48.186Z,0.10
2018-06-09T20:55:15.813Z,0.30
2018-06-09T20:57:43.980Z,0.30
2018-06-09T21:00:11.793Z,0.40
2018-06-09T21:02:39.393Z,0.20
2018-06-09T21:05:07.148Z,0.40
2018-06-09T21:07:34.959Z,0.30
2018-06-09T21:10:02.647Z,0.30
2018-06-09T21:12:30.637Z,0.30
2018-06-09T21:14:58.471Z,0.40
2018-06-09T21:17:26.123Z,0.13
2018-06-09T21:19:53.954Z,0.30
2018-06-09T21:22:21.750Z,0.30
2018-06-09T21:24:49.412Z,0.30
2018-06-09T21:27:23.201Z,0.30
2018-06-09T21:29:56.717Z,0.37
2018-06-09T21:32:28.395Z,0.20
2018-06-09T21:35:11.803Z,0.50
2018-06-09T21:37:42.765Z,0.30
2018-06-09T21:40:15.903Z,0.30
2018-06-09T21:42:44.186Z,0.40
2018-06-09T21:45:16.593Z,0.37
2018-06-09T21:47:44.490Z,0.30
2018-06-09T21:50:12.328Z,0.37
2018-06-09T21:52:40.864Z,0.30
2018-06-09T21:55:08.820Z,0.40
2018-06-09T21:57:36.545Z,0.30
2018-06-09T22:00:06.432Z,0.30
2018-06-09T22:02:34.352Z,0.33
2018-06-09T22:05:02.091Z,0.30
2018-06-09T22:07:29.719Z,0.40
2018-06-09T22:09:57.661Z,0.37
2018-06-09T22:12:25.441Z,0.40
2018-06-09T22:14:53.138Z,0.50
2018-06-09T22:17:21.197Z,0.20
2018-06-09T22:19:49.108Z,0.50
2018-06-09T22:22:16.802Z,0.50
2018-06-09T22:24:44.764Z,0.50
2018-06-09T22:27:12.677Z,0.20
2018-06-09T22:29:40.421Z,0.30
2018-06-09T22:32:08.741Z,0.30
2018-06-09T22:34:36.425Z,0.40
2018-06-09T22:37:04.274Z,0.20
2018-06-09T22:39:32.001Z,0.50
2018-06-09T22:41:59.729Z,0.20
2018-06-09T22:44:27.563Z,0.40
2018-06-09T22:46:55.305Z,0.50
2018-06-09T22:49:23.215Z,0.40
2018-06-09T22:51:50.950Z,0.60
2018-06-09T22:54:18.704Z,0.43
2018-06-09T22:56:46.602Z,0.30
2018-06-09T22:59:14.395Z,0.70
2018-06-09T23:01:42.107Z,0.37
2018-06-09T23:04:09.964Z,0.20
2018-06-09T23:06:37.872Z,0.20
2018-06-09T23:09:07.442Z,0.30
2018-06-09T23:11:35.295Z,0.30
2018-06-09T23:14:03.377Z,0.30
2018-06-09T23:16:31.396Z,0.20
2018-06-09T23:18:59.487Z,0.47
2018-06-09T23:21:27.250Z,0.40
2018-06-09T23:23:55.014Z,0.30
2018-06-09T23:26:22.825Z,0.30
2018-06-09T23:28:50.641Z,0.27
2018-06-09T23:31:18.329Z,0.30
2018-06-09T23:33:46.142Z,0.40
2018-06-09T23:36:13.919Z,0.30
2018-06-09T23:38:41.609Z,0.40
2018-06-09T23:41:09.311Z,0.30
2018-06-09T23:43:37.191Z,0.27
2018-06-09T23:46:04.973Z,0.33
2018-06-09T23:48:32.896Z,0.30
2018-06-09T23:51:00.709Z,0.33
2018-06-09T23:53:28.529Z,0.40
2018-06-09T23:55:56.372Z,0.30
2018-06-09T23:58:24.150Z,0.20
